Warren, New York
Current Conditions -  °F | °C
As of 8:53 PM on Saturday 25 Oct 2014 (Local Time) from KRME Reporting Station
Haze Haze  
Wind Chill: 11°   Ceiling: Unl
Heat Index: 11°   Visibility: 5mi
Dew Point:   Wind: 8mph
Humidity: 92%   Direction: 280°W
Pressure: 29.59"   Gusts: NA
Location:  42.8523°N, 74.9958°W
Report Text: KRME 260053Z 28007KT 5SM BR CLR 11/09 A2959 RMK AO2 SLP020 T01060094
Loading
Personal Weather Stations






























Interactive Weather Map
Tropical Storm Tracking
New forecast layout! Learn more

10-Day Weather Forecast

Advertisements
Track Severe Weather on mobile